• Join FlightAware (Why Join?)
  • Login
  • US Flag 
06:02AM EDT


 

Airport Tracker/Info


-or-


 

Live Flight TrackerFlight Track Log ✈ BOE1 ✈ 05-Mar-2010 ✈ KBFI - KBFI

Flight Track Log - Related Links

Times and Time Zones

All times are in EST time to prevent confusion due to time zone crossing. See the BOE1 flight status page for this flight to view local times or setup timezone preferences in your user account.

Time Position Orientation Groundspeed Altitude Reporting Facility
EST Latitude Longitude Course Direction KTS MPH feet Rate Location/Type
03:12PM 47.5497 -122.3210 329° Northwest 179 206 1,200  Level Seattle Center
03:12PM 47.5642 -122.3340 315° West 185 213 1,900 2,760 Climbing Seattle Center
03:13PM 47.6008 -122.3720 310° West 21,000 2,820 Climbing Seattle Center
03:14PM 47.6486 -122.4580 11° North 252 290 7,200 -6,000 Descending Seattle Center
03:15PM 47.7219 -122.4370 27° Northeast 223 257 9,000 1,380 Climbing Seattle Center
03:16PM 47.7942 -122.3820 29° Northeast 248 285 10,000 1,920 Climbing Seattle Center
03:17PM 47.8661 -122.3230 26° Northeast 266 306 12,900 2,280 Climbing Seattle Center
03:18PM 47.9422 -122.2680 20° North 280 322 14,600 1,800 Climbing Seattle Center
03:19PM 48.0411 -122.2140 41° Northeast 327 376 16,600 2,040 Climbing Seattle Center
03:20PM 48.1181 -122.1120 91° East 359 413 18,700 2,160 Climbing Seattle Center
03:21PM 48.1169 -121.9500 94° East 332 382 21,000 1,140 Climbing Seattle Center
03:22PM 48.1094 -121.7850 93° East 355 409 21,000  Level Seattle Center
03:23PM 48.1036 -121.6240 94° East 374 430 21,000 -60 Level Seattle Center
03:24PM 48.0956 -121.4650 94° East 386 444 20,900 420 Descending Seattle Center
03:25PM 48.0875 -121.2970 96° East 391 450 21,900 540 Climbing Seattle Center
03:26PM 48.0769 -121.1360 94° East 391 450 22,000 60 Climbing Seattle Center
03:27PM 48.0683 -120.9710 97° East 391 450 22,100 60 Climbing Seattle Center
03:28PM 48.0553 -120.8060 91° East 391 450 22,200  Climbing Seattle Center
03:29PM 48.0525 -120.6420 98° East 391 450 22,100 -60 Descending Seattle Center
03:30PM 48.0369 -120.4770 97° East 391 450 22,100  Level Seattle Center
03:31PM 48.0231 -120.3120 95° East 391 450 22,100  Level Seattle Center
03:32PM 48.0133 -120.1510 95° East 391 450 22,100 -60 Level Seattle Center
03:33PM 48.0033 -119.9840 96° East 391 450 22,000 -60 Descending Seattle Center
03:34PM 47.9911 -119.8230 98° East 391 450 22,000  Level Seattle Center
03:35PM 47.9764 -119.6590 98° East 391 450 22,000 -60 Level Seattle Center
03:36PM 47.9614 -119.4920 96° East 391 450 21,900 60 Descending Seattle Center
03:37PM 47.9483 -119.3120 96° East 409 471 22,200 240 Climbing Seattle Center
03:38PM 47.9350 -119.1140 97° East 448 516 22,400 60 Climbing Seattle Center
03:39PM 47.9192 -118.9100 98° East 474 545 22,400  Level Seattle Center
03:40PM 47.9008 -118.7090 101° East 487 560 22,400 -120 Level Seattle Center
03:41PM 47.8739 -118.5120 101° East 487 560 22,200 -180 Descending Seattle Center
03:42PM 47.8467 -118.3120 105° East 487 560 22,100 -180 Descending Seattle Center
03:43PM 47.8128 -118.1180 105° East 487 560 21,900 -240 Descending Seattle Center
03:44PM 47.7789 -117.9250 99° East 487 560 21,700 -60 Descending Seattle Center
03:45PM 47.7567 -117.7250 93° East 487 560 21,800 60 Climbing Seattle Center
03:46PM 47.7489 -117.5250 90° East 487 560 21,900  Climbing Seattle Center
03:47PM 47.7492 -117.3280 91° East 481 554 21,900  Level Seattle Center
03:48PM 47.7469 -117.1280 38° Northeast 474 545 21,900  Level Seattle Center
03:49PM 47.8481 -117.0080 324° Northwest 420 483 21,900  Level Seattle Center
03:50PM 47.9483 -117.1170 275° West 310 357 21,900  Level Seattle Center
03:51PM 47.9589 -117.3120 272° West 317 365 21,900  Level Seattle Center
03:52PM 47.9628 -117.5100 274° West 395 455 21,900  Level Seattle Center
03:53PM 47.9708 -117.7080 273° West 445 512 21,900  Level Seattle Center
03:54PM 47.9781 -117.9060 274° West 474 545 22,000  Climbing Seattle Center
03:55PM 47.9875 -118.1040 273° West 480 552 22,000  Level Seattle Center
03:56PM 47.9942 -118.2990 275° West 480 552 22,000  Level Seattle Center
03:57PM 48.0069 -118.5000 275° West 480 552 22,000  Level Seattle Center
03:58PM 48.0194 -118.7100 275° West 492 566 22,000  Level Seattle Center
03:59PM 48.0314 -118.9140 274° West 498 573 22,000  Level Seattle Center
04:00PM 48.0411 -119.1220 275° West 498 573 22,100  Climbing Seattle Center
04:01PM 48.0525 -119.3300 272° West 498 573 22,000  Descending Seattle Center
04:02PM 48.0575 -119.5810 272° West 503 579 22,100  Climbing Seattle Center
04:03PM 48.0617 -119.7890 272° West 503 579 22,000 -60 Descending Seattle Center
04:04PM 48.0656 -120.0000 271° West 503 579 22,000  Level Seattle Center
04:05PM 48.0672 -120.2070 271° West 503 579 22,000  Level Seattle Center
04:06PM 48.0683 -120.4190 270° West 503 579 22,000  Level Seattle Center
04:07PM 48.0692 -120.6260 272° West 503 579 22,000 -60 Level Seattle Center
04:08PM 48.0739 -120.8250 273° West 498 573 21,900 -60 Descending Seattle Center
04:09PM 48.0803 -121.0080 272° West 471 542 21,900  Level Seattle Center
04:10PM 48.0847 -121.1790 307° West 437 503 21,900 60 Level Seattle Center
04:11PM 48.1517 -121.3140 20° North 384 442 22,100 60 Climbing Seattle Center
04:12PM 48.2522 -121.2580 102° East 265 305 22,100 900 Level Seattle Center
04:13PM 48.2292 -121.0990 116° Southeast 199 229 23,900 2,160 Climbing Seattle Center
04:14PM 48.1828 -120.9550 116° Southeast 263 303 26,500 2,160 Climbing Seattle Center
04:15PM 48.1342 -120.8080 105° East 338 389 28,300 1,680 Climbing Seattle Center
04:16PM 48.1064 -120.6520 103° East 372 428 29,900 840 Climbing Seattle Center
04:17PM 48.0806 -120.4840 98° East 390 449 30,000  Climbing Seattle Center
04:18PM 48.0628 -120.2940 96° East 428 493 30,000  Level Seattle Center
04:19PM 48.0489 -120.0960 99° East 464 534 30,000  Level Seattle Center
04:20PM 48.0283 -119.8970 96° East 478 550 30,100 60 Climbing Seattle Center
04:21PM 48.0139 -119.6990 97° East 483 556 30,200  Climbing Seattle Center
04:22PM 47.9969 -119.5010 97° East 483 556 30,200 -120 Level Seattle Center
04:23PM 47.9797 -119.2990 95° East 483 556 30,000 -120 Descending Seattle Center
04:24PM 47.9683 -119.1040 96° East 483 556 30,000  Level Seattle Center
04:25PM 47.9544 -118.9000 95° East 483 556 30,000 -120 Level Seattle Center
04:26PM 47.9425 -118.7020 95° East 483 556 29,800 -120 Descending Seattle Center
04:27PM 47.9300 -118.5020 96° East 483 556 29,800 60 Level Seattle Center
04:28PM 47.9150 -118.3010 95° East 483 556 30,000 60 Climbing Seattle Center
04:29PM 47.9019 -118.1000 96° East 483 556 30,000 -60 Level Seattle Center
04:30PM 47.8867 -117.9000 97° East 483 556 29,900 -60 Descending Seattle Center
04:31PM 47.8686 -117.6930 100° East 483 556 29,900 180 Level Seattle Center
04:32PM 47.8439 -117.4870 99° East 494 568 30,300 300 Climbing Seattle Center
04:33PM 47.8208 -117.2750 101° East 509 586 30,500  Climbing Seattle Center
04:34PM 47.7961 -117.0910 96° East 509 586 30,400 -120 Descending Seattle Center
04:35PM 47.7808 -116.8910 98° East 518 596 30,300 -120 Descending Seattle Center
04:36PM 47.7583 -116.6610 81° East 523 602 30,200 -120 Descending Seattle Center
04:37PM 47.7797 -116.4530 12° North 509 586 30,100 -120 Descending Seattle Center
04:38PM 47.9117 -116.4110 301° West 406 467 30,000 -60 Descending Seattle Center
04:39PM 47.9789 -116.5800 265° West 288 331 30,000  Level Seattle Center
04:40PM 47.9661 -116.8130 267° West 362 417 30,000  Level Seattle Center
04:41PM 47.9586 -117.0110 266° West 416 479 30,000 -60 Level Seattle Center
04:42PM 47.9483 -117.2070 265° West 454 522 29,900  Descending Seattle Center
04:43PM 47.9358 -117.4060 265° West 479 551 30,000  Climbing Seattle Center
04:44PM 47.9231 -117.6010 262° West 487 560 29,900 -60 Descending Seattle Center
04:45PM 47.9056 -117.7970 263° West 482 555 29,900  Level Seattle Center
04:46PM 47.8900 -117.9920 263° West 482 555 29,900  Level Seattle Center
04:47PM 47.8742 -118.1880 266° West 482 555 29,900  Level Seattle Center
04:48PM 47.8642 -118.3830 278° West 482 555 30,000  Climbing Seattle Center
04:49PM 47.8831 -118.5800 284° West 476 548 30,000 -60 Level Seattle Center
04:50PM 47.9161 -118.7770 290° West 481 554 29,900 -60 Descending Seattle Center
04:51PM 47.9611 -118.9620 291° West 481 554 29,900  Level Seattle Center
04:52PM 48.0100 -119.1510 285° West 486 559 29,900  Level Seattle Center
04:53PM 48.0442 -119.3450 276° West 486 559 30,000  Climbing Seattle Center
04:54PM 48.0572 -119.5440 270° West 486 559 30,000  Level Seattle Center
04:55PM 48.0575 -119.7480 270° West 486 559 30,100 -60 Climbing Seattle Center
04:56PM 48.0575 -119.9560 266° West 491 565 29,900 -120 Descending Seattle Center
04:57PM 48.0486 -120.1610 269° West 497 572 29,900  Level Seattle Center
04:58PM 48.0458 -120.3660 267° West 497 572 30,000 60 Climbing Seattle Center
04:59PM 48.0383 -120.5730 270° West 497 572 30,100  Climbing Seattle Center
05:00PM 48.0389 -120.7780 276° West 497 572 30,100  Level Seattle Center
05:01PM 48.0536 -120.9830 280° West 497 572 30,100  Level Seattle Center
05:02PM 48.0783 -121.1880 279° West 502 578 30,100 -180 Level Seattle Center
05:03PM 48.0969 -121.3750 279° West 509 586 29,800 -180 Descending Seattle Center
05:04PM 48.1189 -121.5870 277° West 509 586 29,800 60 Level Seattle Center
05:05PM 48.1342 -121.7890 270° West 509 586 30,000 120 Climbing Seattle Center
05:06PM 48.1347 -122.0010 256° West 504 580 30,100  Climbing Seattle Center
05:07PM 48.1039 -122.1890 188° South 483 556 30,000 360 Descending Seattle Center
05:08PM 47.9911 -122.2140 110° East 370 426 30,900 960 Climbing Seattle Center
05:09PM 47.9486 -122.0420 76° East 247 284 32,000 1,200 Climbing Seattle Center
05:10PM 47.9814 -121.8390 76° East 327 376 33,400 1,440 Climbing Seattle Center
05:11PM 48.0139 -121.6420 77° East 391 450 34,900 780 Climbing Seattle Center
05:12PM 48.0439 -121.4480 85° East 451 519 35,000  Climbing Seattle Center
05:13PM 48.0547 -121.2460 90° East 470 541 35,000 -60 Level Seattle Center
05:14PM 48.0550 -121.0510 95° East 475 547 34,900 -60 Descending Seattle Center
05:15PM 48.0425 -120.8340 98° East 475 547 34,900  Level Seattle Center
05:16PM 48.0253 -120.6410 100° East 480 552 34,900  Level Seattle Center
05:17PM 48.0036 -120.4490 102° East 480 552 34,900  Level Seattle Center
05:18PM 47.9756 -120.2590 92° East 470 541 35,000  Climbing Seattle Center
05:19PM 47.9700 -120.0640 91° East 470 541 34,900 -60 Descending Seattle Center
05:20PM 47.9681 -119.8660 92° East 470 541 34,900  Level Seattle Center
05:21PM 47.9639 -119.6680 90° East 470 541 34,900  Level Seattle Center
05:22PM 47.9636 -119.4730 90° East 470 541 34,900  Level Seattle Center
05:23PM 47.9628 -119.2750 97° East 470 541 34,900  Level Seattle Center
05:24PM 47.9472 -119.0740 96° East 481 554 35,000 60 Climbing Seattle Center
05:25PM 47.9333 -118.8640 97° East 491 565 35,100  Climbing Seattle Center
05:26PM 47.9169 -118.6540 94° East 503 579 35,000  Descending Seattle Center
05:27PM 47.9064 -118.4400 95° East 508 585 35,200 60 Climbing Seattle Center
05:28PM 47.8933 -118.2300 96° East 513 590 35,200 -120 Level Seattle Center
05:29PM 47.8781 -118.0180 95° East 518 596 35,000 -60 Descending Seattle Center
05:30PM 47.8642 -117.8050 97° East 518 596 35,100  Climbing Seattle Center
05:31PM 47.8481 -117.5980 97° East 518 596 35,000 -60 Descending Seattle Center
05:32PM 47.8294 -117.3860 98° East 513 590 35,000  Level Seattle Center
05:33PM 47.8083 -117.1770 99° East 519 597 35,100 60 Climbing Seattle Center
05:34PM 47.7847 -116.9650 98° East 514 592 35,200  Climbing Seattle Center
05:35PM 47.7653 -116.7720 96° East 525 604 35,200 -60 Level Seattle Center
05:36PM 47.7492 -116.5560 96° East 520 598 35,100 -60 Descending Seattle Center
05:37PM 47.7353 -116.3510 94° East 515 593 35,100 -60 Level Seattle Center
05:38PM 47.7244 -116.1360 93° East 515 593 35,000 -60 Descending Seattle Center
05:39PM 47.7156 -115.9200 69° East 515 593 35,000  Level Seattle Center
05:40PM 47.7633 -115.7320 355° North 496 571 35,000  Level Seattle Center
05:41PM 47.8889 -115.7470 288° West 372 428 35,000  Level Seattle Center
05:42PM 47.9281 -115.9240 272° West 266 306 35,000  Level Seattle Center
05:43PM 47.9319 -116.1150 272° West 333 383 35,000  Level Seattle Center
05:44PM 47.9356 -116.3040 272° West 408 470 35,100 120 Climbing Seattle Center
05:45PM 47.9389 -116.4930 272° West 439 505 35,300  Climbing Seattle Center
05:46PM 47.9444 -116.6990 270° West 461 531 35,200 -180 Descending Seattle Center
05:47PM 47.9453 -116.8880 273° West 461 531 35,000 -120 Descending Seattle Center
05:48PM 47.9519 -117.0830 271° West 461 531 35,000  Level Seattle Center
05:49PM 47.9542 -117.2780 272° West 466 536 35,100  Climbing Seattle Center
05:50PM 47.9581 -117.4790 272° West 477 549 35,100 -60 Level Seattle Center
05:51PM 47.9617 -117.6740 272° West 477 549 35,000 -60 Descending Seattle Center
05:52PM 47.9672 -117.8720 271° West 477 549 35,000  Level Seattle Center
05:53PM 47.9703 -118.0700 273° West 477 549 35,000 -60 Level Seattle Center
05:54PM 47.9772 -118.2680 273° West 477 549 34,900  Descending Seattle Center
05:55PM 47.9836 -118.4630 274° West 477 549 35,000  Climbing Seattle Center
05:56PM 47.9939 -118.6640 273° West 477 549 35,000  Level Seattle Center
05:57PM 48.0000 -118.8630 274° West 477 549 35,000 -60 Level Seattle Center
05:58PM 48.0097 -119.0610 274° West 477 549 34,900 -60 Descending Seattle Center
05:59PM 48.0189 -119.2620 275° West 477 549 34,900  Level Seattle Center
06:00PM 48.0300 -119.4570 274° West 477 549 35,000  Climbing Seattle Center
06:01PM 48.0389 -119.6490 273° West 477 549 35,000 660 Level Seattle Center
06:02PM 48.0450 -119.8290 274° West 457 526 36,400 1,020 Climbing Seattle Center
06:03PM 48.0533 -120.0030 273° West 437 503 37,100 840 Climbing Seattle Center
06:04PM 48.0589 -120.1800 274° West 431 496 38,100 600 Climbing Seattle Center
06:05PM 48.0667 -120.3590 274° West 431 496 38,400 240 Climbing Seattle Center
06:06PM 48.0758 -120.5460 274° West 438 504 38,600 240 Climbing Seattle Center
06:07PM 48.0850 -120.7350 275° West 451 519 38,900 420 Climbing Seattle Center
06:08PM 48.0958 -120.9280 274° West 466 536 39,500 540 Climbing Seattle Center
06:09PM 48.1042 -121.1210 274° West 471 542 40,000 240 Climbing Seattle Center
06:10PM 48.1122 -121.3130 274° West 471 542 40,000 60 Level Seattle Center
06:11PM 48.1200 -121.5030 272° West 466 536 40,200 120 Climbing Seattle Center
06:12PM 48.1253 -121.7020 217° Southwest 466 536 40,300 -60 Climbing Seattle Center
06:13PM 48.0364 -121.8010 144° Southeast 403 464 40,100 -180 Descending Seattle Center
06:14PM 47.9422 -121.6980 91° East 308 354 40,000 -60 Descending Seattle Center
06:15PM 47.9392 -121.5030 89° East 299 344 40,000 60 Level Seattle Center
06:16PM 47.9417 -121.3080 91° East 400 460 40,200 60 Climbing Seattle Center
06:17PM 47.9400 -121.1070 91° East 435 501 40,200  Level Seattle Center
06:18PM 47.9378 -120.9090 92° East 459 528 40,300  Climbing Seattle Center
06:19PM 47.9314 -120.6950 92° East 466 536 40,300 -60 Level Seattle Center
06:20PM 47.9264 -120.4970 93° East 472 543 40,200 -60 Descending Seattle Center
06:21PM 47.9192 -120.2990 94° East 478 550 40,200  Level Seattle Center
06:22PM 47.9094 -120.1010 94° East 478 550 40,200 -60 Level Seattle Center
06:23PM 47.8994 -119.9000 94° East 478 550 40,100 -60 Descending Seattle Center
06:24PM 47.8911 -119.7020 88° East 478 550 40,100  Level Seattle Center
06:25PM 47.8950 -119.5040 85° East 478 550 40,100  Level Seattle Center
06:26PM 47.9067 -119.3000 87° East 478 550 40,100 -120 Level Seattle Center
06:27PM 47.9142 -119.0930 89° East 484 557 39,900 -60 Descending Seattle Center
06:28PM 47.9169 -118.8860 96° East 489 563 40,000  Climbing Seattle Center
06:29PM 47.9028 -118.6820 97° East 494 568 40,000  Level Seattle Center
06:30PM 47.8861 -118.4780 96° East 499 574 40,100  Climbing Seattle Center
06:31PM 47.8711 -118.2710 97° East 499 574 40,100  Level Seattle Center
06:32PM 47.8536 -118.0680 98° East 499 574 40,100  Level Seattle Center
06:33PM 47.8339 -117.8610 98° East 499 574 40,100  Level Seattle Center
06:34PM 47.8139 -117.6580 98° East 499 574 40,200  Climbing Seattle Center
06:35PM 47.7933 -117.4520 100° East 499 574 40,200  Level Seattle Center
06:36PM 47.7683 -117.2500 99° East 499 574 40,200 -60 Level Seattle Center
06:37PM 47.7475 -117.0660 100° East 504 580 40,100  Descending Seattle Center
06:38PM 47.7219 -116.8600 98° East 504 580 40,200  Climbing Seattle Center
06:39PM 47.7019 -116.6550 93° East 504 580 40,200 -120 Level Seattle Center
06:40PM 47.6942 -116.4490 91° East 499 574 40,000 -240 Descending Seattle Center
06:41PM 47.6903 -116.2360 55° Northeast 499 574 39,800  Descending Seattle Center
06:42PM 47.7683 -116.0710 360° North 475 547 40,000 180 Climbing Seattle Center
06:43PM 47.9036 -116.0710 303° West 402 463 40,200 120 Climbing Seattle Center
06:44PM 47.9731 -116.2330 265° West 332 382 40,300 -300 Climbing Seattle Center
06:45PM 47.9606 -116.4420 260° West 361 415 39,700 -180 Descending Seattle Center
06:46PM 47.9367 -116.6380 262° West 430 495 40,000 180 Climbing Seattle Center
06:47PM 47.9153 -116.8530 262° West 468 539 40,100  Climbing Seattle Center
06:48PM 47.8969 -117.0490 265° West 475 547 40,100  Level Seattle Center
06:49PM 47.8847 -117.2470 267° West 482 555 40,200  Climbing Seattle Center
06:50PM 47.8764 -117.4490 268° West 482 555 40,200  Level Seattle Center
06:51PM 47.8717 -117.6440 268° West 482 555 40,200 -60 Level Seattle Center
06:52PM 47.8669 -117.8450 272° West 482 555 40,100  Descending Seattle Center
06:53PM 47.8722 -118.0460 279° West 482 555 40,200  Climbing Seattle Center
06:54PM 47.8936 -118.2430 281° West 482 555 40,100  Descending Seattle Center
06:55PM 47.9189 -118.4400 286° West 482 555 40,200  Climbing Seattle Center
06:56PM 47.9564 -118.6370 287° West 487 560 40,200  Level Seattle Center
06:57PM 47.9956 -118.8310 273° West 487 560 40,200 -60 Level Seattle Center
06:58PM 48.0031 -119.0300 270° West 487 560 40,100  Descending Seattle Center
06:59PM 48.0022 -119.2310 270° West 482 555 40,200 -300 Climbing Seattle Center
07:00PM 48.0031 -119.4290 271° West 476 548 39,600 -1,140 Descending Seattle Center
07:01PM 48.0056 -119.6210 270° West 476 548 38,000 -1,620 Descending Seattle Center
07:02PM 48.0056 -119.8080 271° West 471 542 36,400 -1,860 Descending Seattle Center
07:03PM 48.0075 -119.9810 271° West 442 509 34,300 -2,100 Descending Seattle Center
07:04PM 48.0092 -120.1510 266° West 424 488 32,200 -2,040 Descending Seattle Center
07:05PM 48.0022 -120.3190 199° South 413 475 30,300 -2,100 Descending Seattle Center
07:06PM 47.9083 -120.3670 113° Southeast 305 351 28,000 -2,160 Descending Seattle Center
07:07PM 47.8653 -120.2180 86° East 196 226 26,000 -1,800 Descending Seattle Center
07:08PM 47.8722 -120.0510 85° East 264 304 24,400 -1,680 Descending Seattle Center
07:09PM 47.8808 -119.8910 85° East 327 376 22,700 -2,400 Descending Seattle Center
07:10PM 47.8892 -119.7360 88° East 356 410 19,700 -3,900 Descending Seattle Center
07:11PM 47.8931 -119.5910 102° East 361 415 15,000 -2,400 Descending Seattle Center
07:12PM 47.8719 -119.4490 105° East 354 407 15,000  Level Seattle Center
07:13PM 47.8403 -119.2790 106° East 384 442 15,000  Level Seattle Center
07:14PM 47.8058 -119.0970 108° East 423 487 15,000  Level Seattle Center
07:15PM 47.7653 -118.9100 108° East 459 528 15,100  Climbing Seattle Center
07:16PM 47.7242 -118.7190 105° East 477 549 15,100 180 Level Seattle Center
07:17PM 47.6889 -118.5260 101° East 484 557 15,500 300 Climbing Seattle Center
07:18PM 47.6617 -118.3260 102° East 479 551 15,800 120 Climbing Seattle Center
07:19PM 47.6342 -118.1300 120° Southeast 484 557 15,800 60 Level Seattle Center
07:20PM 47.5714 -117.9660 200° South 453 521 16,000  Climbing Seattle Center
07:21PM 47.4619 -118.0250 273° West 302 348 15,800 -300 Descending Seattle Center
07:22PM 47.4689 -118.2180 282° West 265 305 15,500 -120 Descending Seattle Center
07:23PM 47.4983 -118.4170 286° West 392 451 15,600 120 Climbing Seattle Center
07:24PM 47.5358 -118.6120 289° West 447 514 15,800 120 Climbing Seattle Center
07:25PM 47.5792 -118.8020 289° West 467 537 15,900  Climbing Seattle Center
07:26PM 47.6244 -118.9950 291° West 481 554 15,900 -120 Level Seattle Center
07:27PM 47.6711 -119.1790 290° West 486 559 15,700 -120 Descending Seattle Center
07:28PM 47.7178 -119.3670 281° West 486 559 15,700  Level Seattle Center
07:29PM 47.7411 -119.5420 275° West 469 540 15,800 -120 Climbing Seattle Center
07:30PM 47.7517 -119.7090 279° West 439 505 15,500 -420 Descending Seattle Center
07:31PM 47.7706 -119.8870 276° West 429 494 15,000 -300 Descending Seattle Center
07:32PM 47.7847 -120.0880 278° West 453 521 15,000  Level Seattle Center
07:33PM 47.8028 -120.2890 283° West 482 555 15,000 60 Level Seattle Center
07:34PM 47.8331 -120.4870 358° North 490 564 15,200 -120 Climbing Seattle Center
07:35PM 47.9347 -120.4910 91° East 313 360 14,800 -600 Descending Seattle Center
07:36PM 47.9317 -120.3060 97° East 190 219 14,100 -240 Descending Seattle Center
07:37PM 47.9158 -120.1010 96° East 338 389 14,400 300 Climbing Seattle Center
07:38PM 47.9014 -119.8940 96° East 419 482 14,800 300 Climbing Seattle Center
07:39PM 47.8869 -119.6900 99° East 473 544 15,000  Climbing Seattle Center
07:40PM 47.8658 -119.4890 98° East 490 564 14,900 -300 Descending Seattle Center
07:41PM 47.8486 -119.3100 100° East 469 540 14,500 -360 Descending Seattle Center
07:42PM 47.8269 -119.1280 103° East 453 521 14,200 -300 Descending Seattle Center
07:43PM 47.7986 -118.9430 106° East 448 516 14,000 120 Descending Seattle Center
07:44PM 47.7642 -118.7650 108° East 448 516 14,500 480 Climbing Seattle Center
07:45PM 47.7247 -118.5810 109° East 459 528 15,000 120 Climbing Seattle Center
07:46PM 47.6833 -118.4030 120° Southeast 459 528 14,800  Descending Seattle Center
07:47PM 47.6167 -118.2290 125° Southeast 465 535 15,000  Climbing Seattle Center
07:48PM 47.5417 -118.0680 130° Southeast 472 543 14,900 -60 Descending Seattle Center
07:49PM 47.4561 -117.9180 133° Southeast 477 549 14,900  Level Seattle Center
07:50PM 47.3642 -117.7740 113° Southeast 482 555 15,000 60 Climbing Seattle Center
07:51PM 47.3133 -117.5980 39° Northeast 470 541 15,100  Climbing Seattle Center
07:52PM 47.4150 -117.4750 327° Northwest 346 398 15,100  Level Seattle Center
07:53PM 47.5253 -117.5810 276° West 271 312 15,100 -60 Level Seattle Center
07:54PM 47.5392 -117.7830 275° West 334 384 15,000 -120 Descending Seattle Center
07:55PM 47.5508 -117.9820 275° West 432 497 14,900 -60 Descending Seattle Center
07:56PM 47.5619 -118.1810 275° West 456 525 14,900 -60 Level Seattle Center
07:57PM 47.5728 -118.3840 277° West 481 554 14,800 -60 Descending Seattle Center
07:58PM 47.5897 -118.5900 276° West 495 570 14,800  Level Seattle Center
07:59PM 47.6039 -118.7830 276° West 495 570 14,900 60 Climbing Seattle Center
08:00PM 47.6158 -118.9520 270° West 456 525 15,000 60 Climbing Seattle Center
08:01PM 47.6147 -119.1370 269° West 443 510 15,100 -120 Climbing Seattle Center
08:02PM 47.6117 -119.3430 269° West 466 536 14,800 -120 Descending Seattle Center
08:03PM 47.6100 -119.5400 270° West 483 556 14,900 120 Climbing Seattle Center
08:04PM 47.6103 -119.7360 271° West 483 556 15,100 60 Climbing Seattle Center
08:05PM 47.6125 -119.8960 276° West 446 513 15,100 240 Level Seattle Center
08:06PM 47.6225 -120.0440 286° West 402 463 15,600 420 Climbing Seattle Center
08:07PM 47.6533 -120.2040 287° West 385 443 16,000 180 Climbing Seattle Center
08:08PM 47.6858 -120.3620 290° West 396 456 16,000  Level Seattle Center
08:09PM 47.7244 -120.5220 285° West 401 461 16,000  Level Seattle Center
08:10PM 47.7547 -120.6860 287° West 401 461 16,000  Level Seattle Center
08:11PM 47.7867 -120.8440 286° West 406 467 16,000  Level Seattle Center
08:12PM 47.8144 -120.9900 291° West 393 452 16,000  Level Seattle Center
08:13PM 47.8503 -121.1270 309° West 371 427 16,000  Level Seattle Center
08:14PM 47.9072 -121.2330 277° West 356 410 16,000 -540 Level Seattle Center
08:15PM 47.9181 -121.3760 262° West 343 395 15,000 -1,320 Descending Seattle Center
08:16PM 47.9056 -121.5150 259° West 344 396 13,400 -2,100 Descending Seattle Center
08:16PM 47.8961 -121.5890 265° West 306 352 12,000 -2,700 Descending Seattle Center
08:17PM 47.8933 -121.6380 250° West 325 374 10,700 -1,800 Descending Seattle Center
08:17PM 47.8733 -121.7210 228° Southwest 297 342 10,000 -720 Descending Seattle Center
08:18PM 47.8606 -121.7420 225° Southwest 289 333 10,000 -600 Level Seattle Center
08:18PM 47.8347 -121.7810 218° Southwest 289 333 9,600 -1,020 Descending Seattle Center
08:19PM 47.8008 -121.8200 224° Southwest 279 321 9,000 -1,080 Descending Seattle Center
08:19PM 47.7711 -121.8620 217° Southwest 282 325 8,400 -1,200 Descending Seattle Center
08:20PM 47.7414 -121.8950 191° South 285 328 7,800 -1,140 Descending Seattle Center
08:20PM 47.7036 -121.9060 185° South 272 313 7,300 -1,140 Descending Seattle Center
08:21PM 47.6683 -121.9110 194° South 270 311 6,700 -1,320 Descending Seattle Center
08:21PM 47.6389 -121.9220 184° South 264 304 6,100 -1,500 Descending Seattle Center
08:22PM 47.5950 -121.9260 187° South 265 305 5,200 -1,140 Descending Seattle Center
08:22PM 47.5658 -121.9310 183° South 264 304 5,000 -240 Descending Seattle Center
08:23PM 47.5200 -121.9350 200° South 271 312 5,000  Level Seattle Center
08:23PM 47.4822 -121.9550 211° Southwest 270 311 5,000  Level Seattle Center
08:24PM 47.4547 -121.9790 221° Southwest 271 312 5,000  Level Seattle Center
08:24PM 47.4247 -122.0180 230° Southwest 270 311 5,000 -600 Level Seattle Center
08:25PM 47.4033 -122.0560 243° Southwest 271 312 4,400 -1,440 Descending Seattle Center
08:25PM 47.3856 -122.1080 269° West 245 282 3,400 -1,200 Descending Seattle Center
08:26PM 47.3850 -122.1440 286° West 251 289 3,200 -720 Descending Seattle Center
08:26PM 47.3944 -122.1910 325° Northwest 208 239 2,700 -840 Descending Seattle Center
08:27PM 47.4128 -122.2100 333° Northwest 200 230 2,400 -720 Descending Seattle Center
08:27PM 47.4394 -122.2300 340° North 178 205 2,000 -840 Descending Seattle Center
08:28PM 47.4558 -122.2390 326° Northwest 157 181 1,600 -900 Descending Seattle Center
08:28PM 47.4761 -122.2590 335° Northwest 140 161 1,100 -840 Descending Seattle Center
08:29PM 47.4906 -122.2690 324° Northwest 151 174 800 -840 Descending Seattle Center
08:30PM 47.5108 -122.2910 345° North 131 151 200 15,180 Descending Seattle Center
08:30PM 47.5211 -122.2950 322° Northwest 139 160 16,000 11,700 Climbing Seattle Center
08:31PM 47.5536 -122.3330 325° Northwest 139 160 16,000  Level Seattle Center
08:32PM 47.5842 -122.3650 325° Northwest 139 160 16,000  Level Seattle Center
08:33PM 47.6147 -122.3970 324° Northwest 139 160 16,000  Level Seattle Center
08:34PM 47.6453 -122.4300 324° Northwest 139 160 16,000  Level Seattle Center